St Stephan Airport LSTS

Flugplatz Daten

Name: St Stephan Airport

Ident: LSTS

Lat: 46,49739838

Long: 7,41257

Platzhöhe: 3304 ft

IataCode:

City:

Metar

2021/09/25 14:00
CYLC 251400Z 11006KT 15SM FEW200 BKN230 BKN240 04/M07 A3009 RMK CS2CS2CI3 LSTSTFD OBS/NXT 271100Z SLP195

Taf

Gewünschte Webcam nicht vorhanden? Dann fügen Sie eine hinzu. Sie wird dann so schnell wie möglich freigeschaltet
Url: Title: